Time;durP1;ratioP1;P1;durP2;ratioP2;P2;SDS_P1;SDS_P2;PMS_P1;PMS_P2;Temp;Humidity;BMP_temperature;BMP_pressure;BME280_temperature;BME280_humidity;BME280_pressure;Samples;Min_cycle;Max_cycle;Signal;HPM_P1;HPM_P2
2023/09/13 00:01:07;;;;;;;8.73;4.43;;;18.50;99.90;;;;;;7581565;19;20030;-71
2023/09/13 00:03:40;;;;;;;9.90;4.43;;;18.50;99.90;;;;;;7603497;19;20018;-73
2023/09/13 00:06:12;;;;;;;8.25;4.15;;;18.60;99.90;;;;;;7597995;19;20695;-71
2023/09/13 00:08:45;;;;;;;7.05;4.50;;;18.60;99.90;;;;;;7591955;19;20022;-73
2023/09/13 00:11:17;;;;;;;9.85;4.25;;;18.60;99.90;;;;;;7604661;19;20018;-71
2023/09/13 00:13:49;;;;;;;5.93;4.20;;;18.70;99.90;;;;;;7606268;19;20014;-71
2023/09/13 00:16:22;;;;;;;4.82;3.58;;;18.70;99.90;;;;;;7570493;19;20612;-72
2023/09/13 00:18:54;;;;;;;5.93;4.07;;;18.70;99.90;;;;;;7601686;19;20014;-71
2023/09/13 00:21:26;;;;;;;6.00;3.92;;;18.60;99.90;;;;;;7606512;19;20023;-72
2023/09/13 00:23:59;;;;;;;5.78;3.20;;;18.70;99.90;;;;;;7604268;19;20610;-72
2023/09/13 00:26:31;;;;;;;6.10;3.70;;;18.70;99.90;;;;;;7598338;19;20017;-71
2023/09/13 00:29:03;;;;;;;4.47;3.58;;;18.70;99.90;;;;;;7601298;19;20022;-70
2023/09/13 00:31:36;;;;;;;10.43;3.22;;;18.80;99.90;;;;;;7598498;19;20056;-73
2023/09/13 00:34:08;;;;;;;6.90;3.70;;;18.80;99.90;;;;;;7602603;19;21067;-71
2023/09/13 00:36:40;;;;;;;5.13;3.45;;;18.80;99.90;;;;;;7605761;19;20025;-71
2023/09/13 00:39:13;;;;;;;7.90;3.60;;;18.80;99.90;;;;;;7602978;19;20007;-71
2023/09/13 00:41:45;;;;;;;4.40;3.17;;;18.70;99.90;;;;;;7602565;19;20022;-71
2023/09/13 00:44:18;;;;;;;6.78;3.95;;;18.60;99.90;;;;;;7595416;19;20014;-71
2023/09/13 00:46:50;;;;;;;4.85;3.25;;;18.50;99.90;;;;;;7593961;19;20491;-71
2023/09/13 00:49:22;;;;;;;6.47;3.30;;;18.40;99.90;;;;;;7590227;19;20058;-72
2023/09/13 00:51:57;;;;;;;6.45;2.85;;;18.40;99.90;;;;;;7556584;19;20037;-73
2023/09/13 00:54:29;;;;;;;5.63;3.10;;;18.40;99.90;;;;;;7559359;19;20125;-71
2023/09/13 00:57:03;;;;;;;6.25;3.20;;;18.40;99.90;;;;;;7565030;19;20491;-72
2023/09/13 00:59:35;;;;;;;4.90;3.00;;;18.30;99.90;;;;;;7594251;19;20014;-71
2023/09/13 01:02:08;;;;;;;4.88;2.90;;;18.20;99.90;;;;;;7587601;19;20011;-71
2023/09/13 01:04:41;;;;;;;8.43;2.70;;;18.20;99.90;;;;;;7598358;19;20014;-71
2023/09/13 01:07:14;;;;;;;3.90;2.75;;;18.20;99.90;;;;;;7591902;19;20029;-72
2023/09/13 01:09:46;;;;;;;6.65;2.60;;;18.20;99.90;;;;;;7599436;19;20014;-71
2023/09/13 01:12:18;;;;;;;7.35;2.53;;;18.10;99.90;;;;;;7573345;19;20933;-71
2023/09/13 01:14:51;;;;;;;6.97;3.25;;;18.10;99.90;;;;;;7597796;19;20495;-71
2023/09/13 01:17:41;;;;;;;7.25;2.40;;;18.00;99.90;;;;;;7582683;19;20060;-71
2023/09/13 01:20:30;;;;;;;6.95;3.00;;;18.00;99.90;;;;;;7591915;19;20435;-71
2023/09/13 01:23:15;;;;;;;4.35;2.53;;;18.00;99.90;;;;;;7599942;19;20022;-71
2023/09/13 01:26:15;;;;;;;4.85;2.63;;;18.00;99.90;;;;;;7598093;19;20042;-71
2023/09/13 01:28:50;;;;;;;5.82;3.13;;;18.00;99.90;;;;;;7597053;19;20022;-71
2023/09/13 01:31:24;;;;;;;6.38;2.70;;;17.90;99.90;;;;;;7593793;19;20150;-71
2023/09/13 01:33:57;;;;;;;7.30;3.00;;;17.90;99.90;;;;;;7591841;19;20014;-71
2023/09/13 01:36:30;;;;;;;6.13;2.80;;;17.90;99.90;;;;;;7585545;19;20014;-71
2023/09/13 01:39:04;;;;;;;4.60;2.80;;;17.90;99.90;;;;;;7590713;19;20093;-70
2023/09/13 01:41:44;;;;;;;6.10;2.70;;;17.90;99.90;;;;;;7569232;19;20082;-71
2023/09/13 01:44:17;;;;;;;3.63;2.47;;;17.90;99.90;;;;;;7591099;19;20022;-71
2023/09/13 01:46:51;;;;;;;3.78;2.65;;;17.90;99.90;;;;;;7593742;19;20022;-71
2023/09/13 01:49:26;;;;;;;5.03;2.33;;;17.80;99.90;;;;;;7591089;19;21103;-71
2023/09/13 01:51:59;;;;;;;4.25;2.50;;;17.80;99.90;;;;;;7592307;19;21589;-72
2023/09/13 01:54:33;;;;;;;5.32;2.60;;;17.90;99.90;;;;;;7598471;19;20648;-71
2023/09/13 01:57:06;;;;;;;4.97;3.20;;;17.80;99.90;;;;;;7593692;19;20022;-71
2023/09/13 01:59:39;;;;;;;6.13;2.55;;;17.90;99.90;;;;;;7565998;19;20014;-71
2023/09/13 02:02:11;;;;;;;7.20;2.63;;;17.80;99.90;;;;;;7587908;19;20014;-71
2023/09/13 02:04:43;;;;;;;6.70;2.60;;;17.80;99.90;;;;;;7588768;19;20014;-71
2023/09/13 02:07:16;;;;;;;5.38;2.45;;;17.80;99.90;;;;;;7591730;19;20079;-71
2023/09/13 02:09:49;;;;;;;6.82;3.33;;;17.80;99.90;;;;;;7589846;19;20983;-72
2023/09/13 02:12:21;;;;;;;5.65;2.78;;;17.80;99.90;;;;;;7588422;19;21124;-71
2023/09/13 02:14:54;;;;;;;5.13;2.80;;;17.80;99.90;;;;;;7594810;19;20038;-73
2023/09/13 02:17:27;;;;;;;5.47;2.90;;;17.90;99.90;;;;;;7585147;19;20018;-73
2023/09/13 02:20:00;;;;;;;4.25;2.63;;;17.90;99.90;;;;;;7596994;19;20050;-72
2023/09/13 02:22:32;;;;;;;7.28;3.05;;;17.80;99.90;;;;;;7596188;19;20030;-73
2023/09/13 02:25:06;;;;;;;6.47;2.85;;;17.70;99.90;;;;;;7592603;19;20018;-71
2023/09/13 02:27:38;;;;;;;11.07;2.95;;;17.70;99.90;;;;;;7594046;19;20028;-72
2023/09/13 02:30:11;;;;;;;6.78;2.63;;;17.70;99.90;;;;;;7588929;19;20022;-71
2023/09/13 02:32:43;;;;;;;6.68;2.50;;;17.70;99.90;;;;;;7593942;19;20081;-72
2023/09/13 02:35:15;;;;;;;5.93;3.55;;;17.70;99.90;;;;;;7594908;19;20021;-71
2023/09/13 02:37:48;;;;;;;7.85;2.78;;;17.70;99.90;;;;;;7593324;19;20113;-73
2023/09/13 02:40:20;;;;;;;7.83;3.17;;;17.70;99.90;;;;;;7591735;19;21294;-71
2023/09/13 02:42:53;;;;;;;4.72;3.13;;;17.60;99.90;;;;;;7591909;19;20308;-71
2023/09/13 02:45:27;;;;;;;6.45;3.17;;;17.50;99.90;;;;;;7596730;19;20018;-72
2023/09/13 02:47:59;;;;;;;6.15;3.08;;;17.40;99.90;;;;;;7591833;19;20112;-73
2023/09/13 02:50:31;;;;;;;5.53;3.20;;;17.50;99.90;;;;;;7599493;19;20025;-73
2023/09/13 02:53:04;;;;;;;4.57;2.80;;;17.40;99.90;;;;;;7604461;19;20033;-73
2023/09/13 02:55:36;;;;;;;5.28;3.00;;;17.40;99.90;;;;;;7604431;19;20613;-70
2023/09/13 02:58:11;;;;;;;6.57;3.20;;;17.40;99.90;;;;;;7600078;19;20235;-70
2023/09/13 03:00:43;;;;;;;6.47;3.38;;;17.40;99.90;;;;;;7599739;19;20414;-71
2023/09/13 03:03:16;;;;;;;4.93;3.00;;;17.40;99.90;;;;;;7608385;19;20044;-72
2023/09/13 03:05:48;;;;;;;5.35;4.00;;;17.40;99.90;;;;;;7605419;19;20021;-72
2023/09/13 03:08:21;;;;;;;4.15;3.33;;;17.50;99.90;;;;;;7607769;19;20022;-70
2023/09/13 03:10:54;;;;;;;6.00;3.28;;;17.60;99.90;;;;;;7609393;19;20018;-71
2023/09/13 03:13:27;;;;;;;;;;;17.50;99.90;;;;;;7609483;19;20022;-71
2023/09/13 03:16:00;;;;;;;6.40;3.53;;;17.50;99.90;;;;;;7604869;19;21442;-71
2023/09/13 03:18:32;;;;;;;5.33;3.63;;;17.60;99.90;;;;;;7608788;19;20065;-71
2023/09/13 03:21:08;;;;;;;6.38;3.45;;;17.60;99.90;;;;;;7605732;19;20006;-71
2023/09/13 03:23:44;;;;;;;8.82;3.72;;;17.60;99.90;;;;;;7608816;19;20022;-71
2023/09/13 03:26:20;;;;;;;6.90;4.22;;;17.60;99.90;;;;;;7602947;19;20010;-71
2023/09/13 03:28:55;;;;;;;8.30;4.40;;;17.60;99.90;;;;;;7607786;19;20022;-71
2023/09/13 03:31:28;;;;;;;6.45;4.40;;;17.70;99.90;;;;;;7602816;19;20011;-71
2023/09/13 03:34:04;;;;;;;7.68;4.88;;;17.80;99.90;;;;;;7608577;19;20029;-70
2023/09/13 03:36:39;;;;;;;8.18;4.53;;;17.90;99.90;;;;;;7608159;19;20015;-70
2023/09/13 03:39:11;;;;;;;7.22;4.75;;;17.90;99.90;;;;;;7594167;19;20022;-70
2023/09/13 03:41:43;;;;;;;9.05;4.60;;;18.00;99.90;;;;;;7603037;19;20011;-71
2023/09/13 03:44:16;;;;;;;6.40;4.78;;;18.00;99.90;;;;;;7600766;19;20022;-72
2023/09/13 03:46:49;;;;;;;8.70;4.83;;;18.10;99.90;;;;;;7607124;19;20086;-72
2023/09/13 03:49:21;;;;;;;7.07;4.80;;;18.10;99.90;;;;;;7606831;19;20026;-70
2023/09/13 03:51:54;;;;;;;12.27;4.85;;;18.10;99.90;;;;;;7606280;19;20065;-71
2023/09/13 03:54:27;;;;;;;8.93;5.28;;;18.10;99.90;;;;;;7613067;19;20018;-70
2023/09/13 03:56:59;;;;;;;5.75;4.40;;;18.20;99.90;;;;;;7611890;19;20029;-72
2023/09/13 03:59:31;;;;;;;8.75;4.63;;;18.20;99.90;;;;;;7609381;19;20014;-71
2023/09/13 04:02:04;;;;;;;7.28;4.78;;;18.20;99.90;;;;;;7608586;19;20378;-71
2023/09/13 04:04:36;;;;;;;9.70;4.95;;;18.30;99.90;;;;;;7610009;19;20719;-71
2023/09/13 04:07:09;;;;;;;7.03;4.10;;;18.30;99.90;;;;;;7599126;19;20023;-71
2023/09/13 04:09:41;;;;;;;7.47;4.53;;;18.30;99.90;;;;;;7610611;19;20011;-72
2023/09/13 04:12:14;;;;;;;7.78;4.93;;;18.30;99.90;;;;;;7594822;19;20645;-70
2023/09/13 04:14:47;;;;;;;7.70;5.05;;;18.30;99.90;;;;;;7601093;19;20022;-72
2023/09/13 04:17:19;;;;;;;9.57;5.10;;;18.40;99.90;;;;;;7562951;19;20440;-70
2023/09/13 04:19:51;;;;;;;8.75;4.80;;;18.40;99.90;;;;;;7593917;19;20043;-71
2023/09/13 04:22:23;;;;;;;9.40;4.63;;;18.50;99.90;;;;;;7577505;19;20018;-72
2023/09/13 04:24:55;;;;;;;9.63;5.32;;;18.50;99.90;;;;;;7609690;19;20872;-71
2023/09/13 04:27:28;;;;;;;7.68;5.43;;;18.50;99.90;;;;;;7602831;19;21315;-72
2023/09/13 04:30:01;;;;;;;6.73;5.07;;;18.50;99.90;;;;;;7606220;19;20031;-71
2023/09/13 04:32:35;;;;;;;6.53;4.75;;;18.50;99.90;;;;;;7591066;19;20010;-71
2023/09/13 04:35:07;;;;;;;10.02;5.38;;;18.50;99.90;;;;;;7593832;19;20014;-73
2023/09/13 04:37:42;;;;;;;10.05;5.00;;;18.60;99.90;;;;;;7589129;19;20015;-70
2023/09/13 04:40:15;;;;;;;7.18;5.10;;;18.60;99.90;;;;;;7587178;19;20985;-72
2023/09/13 04:43:17;;;;;;;9.27;5.05;;;18.60;99.90;;;;;;7587809;19;20125;-70
2023/09/13 04:45:50;;;;;;;6.70;4.97;;;18.70;99.90;;;;;;7592795;19;20658;-72
2023/09/13 04:48:22;;;;;;;7.05;5.43;;;18.70;99.90;;;;;;7593841;19;20018;-72
2023/09/13 04:50:55;;;;;;;7.85;5.00;;;18.60;99.90;;;;;;7598136;19;20022;-72
2023/09/13 04:53:27;;;;;;;11.90;5.32;;;18.70;99.90;;;;;;7593113;19;20093;-72
2023/09/13 04:56:01;;;;;;;6.82;4.60;;;18.60;99.90;;;;;;7598879;19;20635;-72
2023/09/13 04:58:37;;;;;;;9.48;5.38;;;18.60;99.90;;;;;;7594811;19;20026;-72
2023/09/13 05:01:10;;;;;;;9.63;6.00;;;18.60;99.90;;;;;;7590863;19;20056;-72
2023/09/13 05:03:46;;;;;;;10.90;5.85;;;18.60;99.90;;;;;;7581316;19;20024;-73
2023/09/13 05:06:22;;;;;;;8.05;6.13;;;18.70;99.90;;;;;;7593679;19;20022;-72
2023/09/13 05:08:54;;;;;;;12.45;6.05;;;18.70;99.90;;;;;;7584301;19;20860;-71
2023/09/13 05:11:34;;;;;;;11.85;6.53;;;18.80;99.90;;;;;;7574516;19;20718;-71
2023/09/13 05:14:14;;;;;;;8.55;5.47;;;18.80;99.90;;;;;;7590409;19;21188;-70
2023/09/13 05:16:46;;;;;;;8.80;5.85;;;18.90;99.90;;;;;;7565693;19;21105;-73
2023/09/13 05:19:19;;;;;;;9.70;6.15;;;19.00;99.90;;;;;;7580752;19;20015;-70
2023/09/13 05:21:51;;;;;;;8.95;6.07;;;19.00;99.90;;;;;;7593404;19;20090;-75
2023/09/13 05:24:24;;;;;;;9.95;5.72;;;19.10;99.90;;;;;;7589197;19;20022;-70
2023/09/13 05:26:57;;;;;;;10.23;6.40;;;19.10;99.90;;;;;;7589070;19;20019;-71
2023/09/13 05:29:29;;;;;;;10.75;6.20;;;19.20;99.90;;;;;;7568817;19;20014;-71
2023/09/13 05:32:02;;;;;;;9.83;6.47;;;19.20;99.90;;;;;;7592708;19;20048;-71
2023/09/13 05:34:34;;;;;;;7.65;6.18;;;19.30;99.90;;;;;;7594324;19;20701;-71
2023/09/13 05:37:07;;;;;;;10.43;6.55;;;19.30;99.90;;;;;;7606115;19;20030;-71
2023/09/13 05:39:40;;;;;;;11.90;7.37;;;19.40;99.90;;;;;;7600796;19;21786;-71
2023/09/13 05:42:13;;;;;;;14.07;6.78;;;19.40;99.90;;;;;;7601979;19;20980;-71
2023/09/13 05:44:45;;;;;;;13.27;6.40;;;19.40;99.90;;;;;;7601524;19;20030;-71
2023/09/13 05:47:17;;;;;;;10.98;6.90;;;19.40;99.90;;;;;;7606543;19;20021;-70
2023/09/13 05:49:49;;;;;;;14.10;7.07;;;19.40;99.90;;;;;;7598931;19;20051;-72
2023/09/13 05:52:21;;;;;;;14.23;7.35;;;19.40;99.90;;;;;;7602947;19;20018;-71
2023/09/13 05:54:54;;;;;;;13.00;7.78;;;19.30;99.90;;;;;;7601125;19;20484;-71
2023/09/13 05:57:29;;;;;;;15.50;7.35;;;19.30;99.90;;;;;;7597659;19;20022;-71
2023/09/13 06:00:02;;;;;;;17.38;8.48;;;19.10;99.90;;;;;;7599923;19;20022;-71
2023/09/13 06:02:42;;;;;;;15.45;7.95;;;19.00;99.90;;;;;;7572588;19;20019;-71
2023/09/13 06:05:15;;;;;;;13.25;8.77;;;18.90;99.90;;;;;;7548683;19;20044;-71
2023/09/13 06:07:47;;;;;;;16.25;10.10;;;18.80;99.90;;;;;;7542720;19;20739;-70
2023/09/13 06:10:20;;;;;;;15.85;9.75;;;18.80;99.90;;;;;;7566548;19;20022;-72
2023/09/13 06:12:53;;;;;;;16.27;10.30;;;18.60;99.90;;;;;;7551948;19;20850;-71
2023/09/13 06:15:25;;;;;;;15.40;9.43;;;18.60;99.90;;;;;;7566277;19;20019;-71
2023/09/13 06:17:58;;;;;;;15.02;10.20;;;18.60;99.90;;;;;;7561253;19;20018;-71
2023/09/13 06:20:31;;;;;;;15.45;9.55;;;18.50;99.90;;;;;;7579527;19;20029;-71
2023/09/13 06:23:04;;;;;;;17.33;9.57;;;18.60;99.90;;;;;;7580108;19;20113;-72
2023/09/13 06:25:36;;;;;;;16.40;10.07;;;18.50;99.90;;;;;;7586092;19;21404;-71
2023/09/13 06:28:08;;;;;;;18.48;9.73;;;18.50;99.90;;;;;;7561660;19;20010;-70
2023/09/13 06:30:43;;;;;;;17.55;10.38;;;18.40;99.90;;;;;;7584335;19;20292;-71
2023/09/13 06:33:33;;;;;;;19.23;9.50;;;18.30;99.90;;;;;;7598714;19;20905;-71
2023/09/13 06:36:09;;;;;;;17.33;9.98;;;18.20;99.90;;;;;;7579134;19;20033;-71
2023/09/13 06:38:43;;;;;;;17.77;10.20;;;18.00;99.90;;;;;;7598875;19;20025;-71
2023/09/13 06:41:16;;;;;;;15.02;8.60;;;18.00;99.90;;;;;;7606759;19;20024;-71
2023/09/13 06:43:49;;;;;;;17.92;8.98;;;18.00;99.90;;;;;;7607938;19;20672;-71
2023/09/13 06:46:41;;;;;;;13.13;8.75;;;18.00;99.90;;;;;;7603513;19;20064;-73
2023/09/13 06:49:21;;;;;;;15.90;10.73;;;18.10;99.90;;;;;;7609069;19;20114;-71
2023/09/13 06:51:54;;;;;;;12.77;9.25;;;18.20;99.90;;;;;;7608854;19;20025;-71
2023/09/13 06:54:29;;;;;;;18.55;10.20;;;18.20;99.90;;;;;;7607628;19;20475;-71
2023/09/13 06:57:05;;;;;;;18.73;9.35;;;18.30;99.90;;;;;;7609002;19;20015;-71
2023/09/13 06:59:39;;;;;;;17.30;8.90;;;18.40;99.90;;;;;;7608188;19;20022;-71
2023/09/13 07:02:23;;;;;;;16.52;8.88;;;18.40;99.90;;;;;;7597874;19;21160;-71
2023/09/13 07:04:59;;;;;;;13.98;9.07;;;18.40;99.90;;;;;;7605196;19;20015;-72
2023/09/13 07:07:34;;;;;;;17.20;9.27;;;18.50;99.90;;;;;;7604815;19;20154;-71
2023/09/13 07:10:07;;;;;;;16.88;10.90;;;18.40;99.90;;;;;;7607916;19;20031;-71
2023/09/13 07:12:40;;;;;;;17.77;11.13;;;18.40;99.90;;;;;;7588282;19;20063;-71
2023/09/13 07:15:12;;;;;;;21.42;10.60;;;18.40;99.90;;;;;;7596166;19;20018;-71
2023/09/13 07:17:45;;;;;;;15.55;9.93;;;18.50;99.90;;;;;;7598491;19;21133;-71
2023/09/13 07:20:17;;;;;;;16.65;9.43;;;18.50;99.90;;;;;;7604282;19;20026;-71
2023/09/13 07:22:50;;;;;;;19.83;10.13;;;18.50;99.90;;;;;;7570984;19;20016;-71
2023/09/13 07:25:23;;;;;;;14.93;9.55;;;18.50;99.90;;;;;;7563659;19;20052;-70
2023/09/13 07:27:55;;;;;;;15.68;9.68;;;18.50;99.90;;;;;;7606418;19;20031;-71
2023/09/13 07:30:28;;;;;;;14.98;10.23;;;18.50;99.90;;;;;;7608225;19;20029;-70
2023/09/13 07:33:00;;;;;;;19.03;9.17;;;18.50;99.90;;;;;;7604206;19;20011;-70
2023/09/13 07:35:33;;;;;;;20.05;10.35;;;18.50;99.90;;;;;;7600965;19;20026;-71
2023/09/13 07:38:06;;;;;;;20.05;10.52;;;18.50;99.90;;;;;;7611152;19;21136;-71
2023/09/13 07:40:39;;;;;;;19.95;9.70;;;18.50;99.90;;;;;;7609787;19;20919;-70
2023/09/13 07:43:11;;;;;;;18.20;10.80;;;18.60;99.90;;;;;;7610010;19;20094;-71
2023/09/13 07:45:45;;;;;;;14.13;9.75;;;18.50;99.90;;;;;;7593727;19;20583;-71
2023/09/13 07:48:18;;;;;;;16.63;10.15;;;18.60;99.90;;;;;;7604247;19;20039;-70
2023/09/13 07:50:50;;;;;;;21.20;11.43;;;18.50;99.90;;;;;;7562999;19;20014;-71
2023/09/13 07:53:25;;;;;;;13.18;9.30;;;18.50;99.90;;;;;;7589860;19;20014;-70
2023/09/13 07:55:59;;;;;;;14.57;9.48;;;18.50;99.90;;;;;;7586583;19;20029;-72
2023/09/13 07:58:32;;;;;;;13.18;9.30;;;18.60;99.90;;;;;;7590285;19;20375;-70
2023/09/13 08:01:04;;;;;;;14.65;9.75;;;18.60;99.90;;;;;;7592579;19;20084;-70
2023/09/13 08:03:36;;;;;;;22.98;8.80;;;18.70;99.90;;;;;;7579775;19;20782;-71
2023/09/13 08:06:09;;;;;;;14.00;8.90;;;18.80;99.90;;;;;;7563589;19;20014;-71
2023/09/13 08:08:41;;;;;;;14.65;8.57;;;19.00;99.90;;;;;;7596778;19;20263;-72
2023/09/13 08:11:14;;;;;;;12.43;9.10;;;19.00;99.90;;;;;;7605777;19;20015;-71
2023/09/13 08:13:46;;;;;;;17.65;7.50;;;19.00;99.90;;;;;;7587811;19;20038;-72
2023/09/13 08:16:19;;;;;;;13.63;7.93;;;19.10;99.90;;;;;;7599251;19;20018;-71
2023/09/13 08:18:51;;;;;;;13.67;8.50;;;19.20;99.90;;;;;;7589802;19;21519;-71
2023/09/13 08:21:24;;;;;;;15.25;8.63;;;19.30;99.90;;;;;;7591460;19;20018;-71
2023/09/13 08:23:56;;;;;;;12.70;8.27;;;19.40;99.90;;;;;;7553363;19;20082;-71
2023/09/13 08:26:30;;;;;;;10.23;7.60;;;19.50;99.90;;;;;;7583042;19;20049;-71
2023/09/13 08:29:03;;;;;;;16.27;8.20;;;19.60;99.90;;;;;;7585778;19;20095;-71
2023/09/13 08:31:36;;;;;;;12.80;7.97;;;19.70;99.90;;;;;;7587216;19;20024;-71
2023/09/13 08:34:08;;;;;;;15.50;8.67;;;19.80;99.90;;;;;;7587539;19;20964;-71
2023/09/13 08:36:41;;;;;;;11.70;7.15;;;19.80;99.90;;;;;;7583044;19;20722;-70
2023/09/13 08:39:13;;;;;;;13.90;8.82;;;19.90;99.90;;;;;;7559916;19;20048;-72
2023/09/13 08:41:50;;;;;;;12.57;7.50;;;19.90;99.90;;;;;;7542570;19;20017;-71
2023/09/13 08:44:23;;;;;;;12.13;8.23;;;19.90;99.90;;;;;;7527447;19;20022;-70
2023/09/13 08:46:58;;;;;;;9.40;7.05;;;20.00;99.90;;;;;;7570283;19;20018;-71
2023/09/13 08:49:35;;;;;;;9.90;6.78;;;20.10;99.90;;;;;;7598131;19;21067;-71
2023/09/13 08:52:08;;;;;;;10.18;6.65;;;20.10;99.90;;;;;;7594216;19;20033;-71
2023/09/13 08:54:42;;;;;;;10.90;7.03;;;20.10;99.90;;;;;;7581588;19;20014;-71
2023/09/13 08:57:31;;;;;;;17.77;7.30;;;20.10;99.90;;;;;;7600605;19;20696;-71
2023/09/13 09:00:07;;;;;;;11.65;6.88;;;20.10;99.90;;;;;;7579864;19;20018;-71
2023/09/13 09:02:42;;;;;;;20.65;9.40;;;20.20;99.90;;;;;;7583346;19;20098;-71
2023/09/13 09:05:16;;;;;;;12.18;7.65;;;20.30;99.90;;;;;;7597966;19;20025;-72
2023/09/13 09:07:49;;;;;;;11.55;7.10;;;20.50;99.90;;;;;;7582915;19;20014;-72
2023/09/13 09:10:22;;;;;;;14.13;7.22;;;20.50;99.90;;;;;;7603542;19;20100;-70
2023/09/13 09:12:56;;;;;;;;;;;20.60;99.90;;;;;;7588074;19;20023;-70
2023/09/13 09:15:30;;;;;;;;;;;20.70;99.90;;;;;;7598130;19;19922;-70
2023/09/13 09:18:07;;;;;;;8.18;5.85;;;20.80;99.90;;;;;;7589450;19;20456;-70
2023/09/13 09:20:41;;;;;;;9.35;6.22;;;20.90;99.90;;;;;;7603065;19;20022;-69
2023/09/13 09:23:14;;;;;;;8.65;5.78;;;21.00;99.90;;;;;;7585146;19;20083;-70
2023/09/13 09:25:50;;;;;;;9.57;5.90;;;21.10;99.90;;;;;;7590431;19;20031;-72
2023/09/13 09:28:23;;;;;;;8.82;5.15;;;21.20;99.90;;;;;;7609740;19;20014;-70
2023/09/13 09:30:56;;;;;;;7.53;5.47;;;21.20;99.90;;;;;;7594514;19;20020;-70
2023/09/13 09:33:31;;;;;;;7.13;5.40;;;21.40;99.90;;;;;;7604220;19;20560;-70
2023/09/13 09:36:04;;;;;;;9.75;5.70;;;21.40;99.90;;;;;;7597961;19;20428;-70
2023/09/13 09:38:36;;;;;;;9.25;5.63;;;21.50;99.90;;;;;;7601579;19;20018;-70
2023/09/13 09:41:09;;;;;;;8.48;5.60;;;21.50;99.90;;;;;;7590504;19;20026;-70
2023/09/13 09:43:43;;;;;;;7.63;5.43;;;21.70;99.90;;;;;;7582125;19;20865;-70
2023/09/13 09:46:16;;;;;;;8.10;5.50;;;21.60;99.90;;;;;;7590012;19;20019;-70
2023/09/13 09:48:51;;;;;;;7.18;5.15;;;21.60;99.90;;;;;;7598960;19;20017;-72
2023/09/13 09:51:23;;;;;;;7.43;5.22;;;21.70;99.90;;;;;;7600367;19;20015;-70
2023/09/13 09:53:56;;;;;;;9.10;5.78;;;21.70;99.90;;;;;;7595727;19;20019;-70
2023/09/13 09:56:30;;;;;;;10.80;6.22;;;21.70;99.90;;;;;;7590218;19;20018;-70
2023/09/13 09:59:03;;;;;;;10.77;6.43;;;21.80;99.90;;;;;;7573094;19;20007;-70
2023/09/13 10:01:41;;;;;;;8.18;6.20;;;21.90;99.90;;;;;;7579668;19;20403;-70
2023/09/13 10:04:13;;;;;;;9.55;6.28;;;22.00;99.90;;;;;;7591464;19;20425;-73
2023/09/13 10:06:57;;;;;;;6.63;5.93;;;22.00;99.90;;;;;;7576380;19;20011;-70
2023/09/13 10:09:43;;;;;;;10.77;6.68;;;22.10;99.90;;;;;;7602126;19;20015;-70
2023/09/13 10:12:15;;;;;;;9.15;6.10;;;22.10;99.90;;;;;;7593443;19;20017;-70
2023/09/13 10:14:48;;;;;;;8.52;6.63;;;22.10;99.90;;;;;;7601872;19;20025;-70
2023/09/13 10:17:21;;;;;;;8.57;6.20;;;22.20;99.90;;;;;;7598889;19;20021;-70
2023/09/13 10:19:54;;;;;;;9.38;7.15;;;22.40;99.90;;;;;;7589715;19;20011;-71
2023/09/13 10:22:30;;;;;;;10.57;6.07;;;22.50;99.90;;;;;;7580077;19;20075;-70
2023/09/13 10:25:04;;;;;;;10.65;6.57;;;22.60;99.90;;;;;;7576197;19;20022;-70
2023/09/13 10:27:39;;;;;;;9.30;6.40;;;22.80;99.90;;;;;;7583295;19;20034;-70
2023/09/13 10:30:21;;;;;;;8.63;6.30;;;22.90;99.90;;;;;;7585572;19;20044;-71
2023/09/13 10:32:57;;;;;;;12.52;6.38;;;22.90;99.90;;;;;;7574414;19;20241;-70
2023/09/13 10:35:32;;;;;;;7.93;5.70;;;22.90;99.90;;;;;;7582957;19;20424;-70
2023/09/13 10:38:13;;;;;;;8.68;5.93;;;23.00;99.90;;;;;;7587676;19;20096;-71
2023/09/13 10:40:55;;;;;;;9.13;5.90;;;23.10;99.90;;;;;;7597031;19;20014;-70
2023/09/13 10:43:29;;;;;;;10.45;6.38;;;23.20;99.90;;;;;;7594480;19;20731;-71
2023/09/13 10:46:02;;;;;;;7.63;5.53;;;23.10;99.90;;;;;;7585475;19;20015;-71
2023/09/13 10:48:36;;;;;;;8.63;6.40;;;22.90;99.90;;;;;;7569869;19;20018;-71
2023/09/13 10:51:09;;;;;;;;;;;22.90;99.90;;;;;;7596197;19;20105;-70
2023/09/13 10:53:45;;;;;;;9.75;5.70;;;22.80;99.90;;;;;;7575146;19;20347;-71
2023/09/13 10:56:19;;;;;;;7.22;5.82;;;22.90;99.90;;;;;;7584672;19;20018;-71
2023/09/13 10:58:53;;;;;;;8.07;5.40;;;22.90;99.90;;;;;;7596407;19;20321;-71
2023/09/13 11:01:27;;;;;;;8.82;5.90;;;22.90;99.90;;;;;;7595725;19;20994;-71
2023/09/13 11:04:00;;;;;;;9.20;6.28;;;23.00;99.90;;;;;;7581102;19;20087;-71
2023/09/13 11:06:33;;;;;;;7.68;5.82;;;23.10;99.90;;;;;;7523049;19;20022;-72
2023/09/13 11:09:14;;;;;;;9.35;6.10;;;23.10;99.90;;;;;;7529786;19;20015;-71
2023/09/13 11:11:54;;;;;;;8.90;5.65;;;23.10;99.90;;;;;;7535970;19;20018;-70
2023/09/13 11:14:31;;;;;;;7.20;5.78;;;23.10;99.90;;;;;;7545252;19;20229;-71
2023/09/13 11:17:37;;;;;;;7.13;5.60;;;23.20;99.90;;;;;;7524686;19;20014;-71
2023/09/13 11:20:35;;;;;;;7.53;5.50;;;23.30;99.90;;;;;;7525092;19;21280;-71
2023/09/13 11:23:10;;;;;;;8.93;5.30;;;23.20;99.90;;;;;;7575203;19;20007;-72
2023/09/13 11:26:04;;;;;;;11.25;5.38;;;23.40;99.90;;;;;;7568749;19;20010;-71
2023/09/13 11:28:46;;;;;;;9.10;5.38;;;23.30;99.90;;;;;;7581019;19;21034;-72
2023/09/13 11:31:21;;;;;;;7.38;5.38;;;23.40;99.90;;;;;;7569975;19;20022;-72
2023/09/13 11:33:57;;;;;;;9.38;5.57;;;23.50;99.90;;;;;;7595277;19;20010;-71
2023/09/13 11:36:31;;;;;;;10.52;5.40;;;23.50;99.90;;;;;;7587148;19;20022;-71
2023/09/13 11:39:05;;;;;;;7.22;5.00;;;23.60;99.90;;;;;;7568510;19;20470;-70
2023/09/13 11:41:39;;;;;;;10.07;5.47;;;23.50;99.90;;;;;;7578728;19;20019;-75
2023/09/13 11:44:26;;;;;;;7.10;5.10;;;23.50;99.90;;;;;;7556387;19;20006;-70
2023/09/13 11:47:09;;;;;;;6.10;5.38;;;23.50;99.90;;;;;;7576119;19;20822;-71
2023/09/13 11:49:41;;;;;;;6.45;5.40;;;23.50;99.90;;;;;;7572711;19;20948;-70
2023/09/13 11:52:19;;;;;;;12.48;6.28;;;23.40;99.90;;;;;;7569170;19;20015;-70
2023/09/13 11:55:11;;;;;;;8.60;5.37;;;23.30;99.90;;;;;;7555820;19;20011;-71
2023/09/13 11:58:03;;;;;;;8.32;5.57;;;23.10;99.90;;;;;;7587192;19;20047;-72
2023/09/13 12:00:55;;;;;;;7.35;4.95;;;23.00;99.90;;;;;;7556210;19;20910;-72
2023/09/13 12:03:29;;;;;;;5.30;4.20;;;22.90;99.90;;;;;;7568048;19;20811;-71
2023/09/13 12:06:23;;;;;;;7.35;4.15;;;22.60;99.90;;;;;;7570905;19;20702;-71
2023/09/13 12:09:10;;;;;;;6.47;3.42;;;22.40;99.90;;;;;;7536388;19;20019;-71
2023/09/13 12:11:50;;;;;;;5.93;3.90;;;22.20;99.90;;;;;;7570005;19;20018;-71
2023/09/13 12:14:25;;;;;;;7.75;4.55;;;22.10;99.90;;;;;;7565326;19;20018;-71
2023/09/13 12:17:17;;;;;;;7.93;4.90;;;22.10;99.90;;;;;;7594812;19;20010;-71
2023/09/13 12:19:50;;;;;;;9.23;5.00;;;22.10;99.90;;;;;;7567193;19;21290;-71
2023/09/13 12:22:23;;;;;;;9.43;5.45;;;22.00;99.90;;;;;;7568085;19;20022;-74
2023/09/13 12:24:58;;;;;;;7.50;5.22;;;22.00;99.90;;;;;;7585417;19;20779;-71
2023/09/13 12:27:31;;;;;;;8.90;5.95;;;21.90;99.90;;;;;;7583114;19;20029;-69
2023/09/13 12:30:07;;;;;;;7.85;6.85;;;21.80;99.90;;;;;;7570181;19;20014;-70
2023/09/13 12:32:40;;;;;;;11.13;7.28;;;21.60;99.90;;;;;;7578530;19;20628;-70
2023/09/13 12:35:13;;;;;;;9.80;6.95;;;21.60;99.90;;;;;;7576041;19;20056;-71
2023/09/13 12:37:55;;;;;;;;;;;21.50;99.90;;;;;;7588927;19;20117;-71
2023/09/13 12:40:28;;;;;;;13.23;7.60;;;21.50;99.90;;;;;;7604419;19;19981;-71
2023/09/13 12:43:00;;;;;;;13.20;7.80;;;21.60;99.90;;;;;;7599621;19;20656;-72
2023/09/13 12:45:33;;;;;;;9.45;6.60;;;21.50;99.90;;;;;;7603347;19;20879;-72
2023/09/13 12:48:05;;;;;;;10.35;6.88;;;21.60;99.90;;;;;;7598608;19;20015;-71
2023/09/13 12:50:39;;;;;;;8.30;6.57;;;21.60;99.90;;;;;;7604990;19;20026;-72
2023/09/13 12:53:15;;;;;;;9.88;6.65;;;21.60;99.90;;;;;;7596173;19;20018;-72
2023/09/13 12:55:48;;;;;;;8.02;6.18;;;21.50;99.90;;;;;;7578825;19;20018;-72
2023/09/13 12:58:25;;;;;;;8.98;6.18;;;21.30;99.90;;;;;;7594943;19;20025;-72
2023/09/13 13:01:03;;;;;;;8.90;6.75;;;21.30;99.90;;;;;;7565974;19;20059;-70
2023/09/13 13:03:35;;;;;;;9.15;6.97;;;21.20;99.90;;;;;;7593975;19;20015;-69
2023/09/13 13:06:08;;;;;;;10.70;6.40;;;21.20;99.90;;;;;;7582455;19;20018;-70
2023/09/13 13:08:41;;;;;;;8.35;6.15;;;21.10;99.90;;;;;;7594812;19;20141;-70
2023/09/13 13:11:15;;;;;;;12.18;7.50;;;21.10;99.90;;;;;;7567219;19;20023;-71
2023/09/13 13:13:47;;;;;;;9.07;7.07;;;20.90;99.90;;;;;;7586268;19;20022;-69
2023/09/13 13:16:20;;;;;;;9.17;7.10;;;20.70;99.90;;;;;;7597684;19;20367;-69
2023/09/13 13:19:13;;;;;;;10.77;7.40;;;20.60;99.90;;;;;;7600105;19;20025;-69
2023/09/13 13:21:52;;;;;;;8.45;7.07;;;20.50;99.90;;;;;;7600179;19;20056;-70